Time;durP1;ratioP1;P1;durP2;ratioP2;P2;SDS_P1;SDS_P2;PMS_P1;PMS_P2;Temp;Humidity;BMP_temperature;BMP_pressure;BME280_temperature;BME280_humidity;BME280_pressure;Samples;Min_cycle;Max_cycle;Signal;HPM_P1;HPM_P2
2024/01/12 00:00:15;;;;;;;21.33;19.27;;;-0.10;1.00;;;;;;5039318;28;20462;-37
2024/01/12 00:02:41;;;;;;;26.13;21.17;;;-0.20;61.10;;;;;;5039294;28;20205;-36
2024/01/12 00:05:07;;;;;;;22.17;19.77;;;-0.10;99.90;;;;;;5007122;28;20429;-37
2024/01/12 00:07:33;;;;;;;22.75;20.45;;;-0.10;99.90;;;;;;5030432;28;20524;-36
2024/01/12 00:09:58;;;;;;;22.37;20.10;;;-0.10;1.00;;;;;;5022532;28;20187;-36
2024/01/12 00:12:25;;;;;;;22.13;20.03;;;-0.10;99.90;;;;;;5030350;28;20194;-36
2024/01/12 00:14:50;;;;;;;25.15;20.45;;;-0.10;99.90;;;;;;5026956;28;21009;-37
2024/01/12 00:17:18;;;;;;;24.43;20.23;;;-0.10;99.90;;;;;;5028337;28;20183;-36
2024/01/12 00:19:45;;;;;;;23.13;20.60;;;-0.10;45.60;;;;;;5035229;28;20234;-36
2024/01/12 00:22:11;;;;;;;23.35;21.08;;;-0.10;99.90;;;;;;5040424;28;20190;-36
2024/01/12 00:24:36;;;;;;;22.73;20.40;;;-0.10;1.00;;;;;;5034497;28;20641;-36
2024/01/12 00:27:02;;;;;;;22.77;19.73;;;-0.10;1.00;;;;;;5033820;28;21093;-36
2024/01/12 00:29:28;;;;;;;23.27;19.73;;;-0.10;99.90;;;;;;5028838;28;20352;-36
2024/01/12 00:31:54;;;;;;;21.77;19.77;;;-0.10;99.90;;;;;;5036394;28;20187;-36
2024/01/12 00:34:19;;;;;;;23.70;21.20;;;-0.10;1.00;;;;;;5026172;28;21046;-36
2024/01/12 00:36:47;;;;;;;21.87;19.60;;;-0.10;99.90;;;;;;5028922;28;20183;-37
2024/01/12 00:39:13;;;;;;;22.42;20.05;;;-0.10;1.00;;;;;;5033454;28;20203;-36
2024/01/12 00:41:38;;;;;;;21.40;19.30;;;-0.10;1.00;;;;;;5038474;28;20193;-36
2024/01/12 00:44:05;;;;;;;28.83;20.47;;;-0.10;31.50;;;;;;5032346;28;20205;-36
2024/01/12 00:46:32;;;;;;;22.80;20.40;;;-0.10;99.90;;;;;;5016886;28;20185;-37
2024/01/12 00:48:58;;;;;;;21.90;19.60;;;-0.10;1.00;;;;;;5029568;28;20179;-37
2024/01/12 00:51:23;;;;;;;21.90;19.80;;;-0.10;1.00;;;;;;5032088;28;20583;-36
2024/01/12 00:53:49;;;;;;;20.43;18.33;;;0.00;1.00;;;;;;5030795;28;20228;-36
2024/01/12 00:56:15;;;;;;;21.93;19.73;;;0.00;1.00;;;;;;5040419;28;20424;-36
2024/01/12 00:58:41;;;;;;;22.57;20.10;;;-0.10;97.70;;;;;;5027073;28;20505;-36
2024/01/12 01:01:08;;;;;;;22.57;20.07;;;-0.10;99.90;;;;;;5031274;28;20456;-37
2024/01/12 01:03:34;;;;;;;26.17;20.50;;;-0.10;99.90;;;;;;5035483;28;20252;-39
2024/01/12 01:05:59;;;;;;;22.07;19.77;;;-0.10;99.90;;;;;;5029605;28;20182;-36
2024/01/12 01:08:25;;;;;;;24.77;20.90;;;0.00;99.90;;;;;;5026858;28;20230;-37
2024/01/12 01:10:50;;;;;;;23.43;20.57;;;0.00;99.90;;;;;;5024240;28;20531;-36
2024/01/12 01:13:16;;;;;;;21.83;19.73;;;-0.10;1.00;;;;;;5029064;28;20813;-36
2024/01/12 01:15:42;;;;;;;22.90;19.30;;;-0.10;1.00;;;;;;5034143;28;20587;-36
2024/01/12 01:18:10;;;;;;;22.50;19.20;;;-0.10;1.00;;;;;;5033310;28;20484;-37
2024/01/12 01:20:36;;;;;;;23.40;20.80;;;-0.10;1.00;;;;;;5038707;28;20244;-36
2024/01/12 01:23:02;;;;;;;21.73;19.70;;;-0.10;1.00;;;;;;5035901;28;20194;-37
2024/01/12 01:25:27;;;;;;;21.60;19.57;;;-0.10;1.00;;;;;;5031866;28;20544;-38
2024/01/12 01:27:54;;;;;;;21.90;19.50;;;-0.10;1.00;;;;;;5037245;28;20203;-37
2024/01/12 01:30:20;;;;;;;22.80;19.90;;;-0.10;1.00;;;;;;5032262;28;20236;-36
2024/01/12 01:32:47;;;;;;;21.13;19.10;;;0.00;1.00;;;;;;5012842;28;20205;-36
2024/01/12 01:35:13;;;;;;;22.42;20.00;;;-0.10;1.00;;;;;;5035733;28;20185;-37
2024/01/12 01:37:39;;;;;;;22.40;20.35;;;-0.10;1.00;;;;;;5029803;28;20289;-37
2024/01/12 01:40:07;;;;;;;21.47;19.40;;;-0.10;1.00;;;;;;5031006;28;20211;-37
2024/01/12 01:42:33;;;;;;;22.25;20.00;;;-0.10;1.00;;;;;;5025206;28;20206;-37
2024/01/12 01:44:59;;;;;;;21.83;19.63;;;-0.10;1.00;;;;;;5032022;28;20914;-37
2024/01/12 01:47:26;;;;;;;21.63;19.42;;;-0.10;1.00;;;;;;5042429;28;20189;-57
2024/01/12 01:49:52;;;;;;;24.48;20.75;;;-0.10;1.00;;;;;;5039343;28;20617;-58
2024/01/12 01:52:19;;;;;;;20.80;18.77;;;0.00;1.00;;;;;;5043345;28;20194;-48
2024/01/12 01:54:46;;;;;;;23.13;20.80;;;0.00;1.00;;;;;;5029816;28;20792;-55
2024/01/12 01:57:12;;;;;;;28.45;20.88;;;0.00;1.00;;;;;;5041589;28;20187;-57
2024/01/12 01:59:39;;;;;;;23.17;20.23;;;0.00;1.00;;;;;;5036650;28;20977;-59
2024/01/12 02:02:05;;;;;;;25.60;20.20;;;0.00;1.00;;;;;;5036541;28;20174;-57
2024/01/12 02:04:31;;;;;;;22.00;19.67;;;0.00;1.00;;;;;;5038141;28;20935;-59
2024/01/12 02:06:57;;;;;;;21.63;18.80;;;0.00;1.00;;;;;;5025374;28;20784;-59
2024/01/12 02:09:24;;;;;;;23.47;20.07;;;0.00;1.00;;;;;;5025829;28;20496;-59
2024/01/12 02:11:49;;;;;;;21.30;19.00;;;0.10;1.00;;;;;;5033968;28;20543;-58
2024/01/12 02:14:15;;;;;;;20.93;19.03;;;0.10;1.00;;;;;;5027288;28;20194;-57
2024/01/12 02:16:41;;;;;;;21.00;18.93;;;0.10;1.00;;;;;;5036278;28;20240;-58
2024/01/12 02:19:06;;;;;;;21.27;19.03;;;0.10;1.00;;;;;;5033484;28;20230;-37
2024/01/12 02:21:32;;;;;;;20.63;18.63;;;0.10;1.00;;;;;;5034189;28;20425;-38
2024/01/12 02:23:58;;;;;;;20.13;18.20;;;0.10;1.00;;;;;;5033373;28;20191;-37
2024/01/12 02:26:23;;;;;;;19.80;17.87;;;0.10;1.00;;;;;;5031764;28;21474;-35
2024/01/12 02:28:49;;;;;;;21.43;18.93;;;0.10;1.00;;;;;;5039414;28;20187;-36
2024/01/12 02:31:18;;;;;;;19.57;17.67;;;0.10;1.00;;;;;;5033149;28;20821;-37
2024/01/12 02:33:46;;;;;;;19.35;17.35;;;0.10;1.00;;;;;;5032602;28;20262;-37
2024/01/12 02:36:12;;;;;;;19.88;17.98;;;0.10;1.00;;;;;;5028437;28;20191;-36
2024/01/12 02:38:37;;;;;;;19.87;17.90;;;0.10;1.00;;;;;;5040886;28;20194;-36
2024/01/12 02:41:03;;;;;;;20.47;17.83;;;0.10;1.00;;;;;;5024300;28;20213;-37
2024/01/12 02:43:29;;;;;;;20.23;18.23;;;0.10;1.00;;;;;;5035634;28;20190;-37
2024/01/12 02:45:54;;;;;;;19.37;17.43;;;0.10;1.00;;;;;;5012680;28;20186;-36
2024/01/12 02:48:20;;;;;;;19.67;17.67;;;0.10;1.00;;;;;;5037560;28;20938;-37
2024/01/12 02:50:45;;;;;;;19.20;17.33;;;0.00;1.00;;;;;;5032517;28;20194;-39
2024/01/12 02:53:11;;;;;;;20.00;17.90;;;0.10;1.00;;;;;;5034200;28;20204;-37
2024/01/12 02:55:36;;;;;;;18.30;16.40;;;0.00;1.00;;;;;;5028287;28;20657;-56
2024/01/12 02:58:02;;;;;;;18.60;16.80;;;0.00;1.00;;;;;;5037442;28;20190;-57
2024/01/12 03:00:30;;;;;;;19.10;17.40;;;0.00;1.00;;;;;;5031885;28;20319;-56
2024/01/12 03:02:56;;;;;;;19.13;17.38;;;0.00;1.00;;;;;;5021964;28;20302;-46
2024/01/12 03:05:22;;;;;;;19.73;17.83;;;0.00;1.00;;;;;;5023308;28;20624;-36
2024/01/12 03:07:47;;;;;;;19.80;17.97;;;0.00;1.00;;;;;;5037342;28;20190;-37
2024/01/12 03:10:16;;;;;;;18.90;17.00;;;0.00;4.50;;;;;;5036350;28;20288;-36
2024/01/12 03:12:41;;;;;;;20.15;18.35;;;0.00;10.70;;;;;;5013912;28;20197;-36
2024/01/12 03:15:07;;;;;;;19.60;17.60;;;0.00;13.20;;;;;;5022720;28;20216;-37
2024/01/12 03:17:33;;;;;;;18.83;17.23;;;0.00;16.20;;;;;;5037536;28;20801;-36
2024/01/12 03:19:59;;;;;;;19.27;17.43;;;0.00;17.20;;;;;;4986745;28;1085574;-58
2024/01/12 03:22:24;;;;;;;21.50;18.33;;;0.00;20.10;;;;;;5024007;28;20436;-54
2024/01/12 03:24:50;;;;;;;19.73;17.67;;;0.00;22.50;;;;;;5039871;28;20190;-58
2024/01/12 03:27:15;;;;;;;19.87;17.97;;;0.00;24.30;;;;;;5034734;28;20240;-54
2024/01/12 03:29:41;;;;;;;18.97;17.27;;;0.00;25.40;;;;;;5029185;28;20187;-57
2024/01/12 03:32:07;;;;;;;17.07;15.57;;;0.10;25.30;;;;;;5028641;28;20274;-57
2024/01/12 03:34:32;;;;;;;18.23;16.43;;;0.10;23.10;;;;;;5039220;28;20222;-57
2024/01/12 03:36:58;;;;;;;17.80;16.17;;;0.10;21.90;;;;;;5026923;28;20192;-57
2024/01/12 03:39:24;;;;;;;18.73;17.13;;;0.20;16.40;;;;;;5041218;28;20289;-59
2024/01/12 03:41:49;;;;;;;20.37;18.17;;;0.20;1.00;;;;;;5013916;28;20182;-57
2024/01/12 03:44:15;;;;;;;19.03;17.20;;;0.20;1.00;;;;;;5039760;28;21018;-58
2024/01/12 03:46:40;;;;;;;19.63;17.73;;;0.20;1.00;;;;;;5028529;28;20224;-57
2024/01/12 03:49:06;;;;;;;19.97;17.87;;;0.20;1.00;;;;;;5027960;28;20225;-36
2024/01/12 03:51:32;;;;;;;19.10;16.50;;;0.20;1.00;;;;;;5032111;28;20181;-36
2024/01/12 03:53:57;;;;;;;18.17;16.43;;;0.20;1.00;;;;;;5039639;28;20196;-36
2024/01/12 03:56:23;;;;;;;17.43;15.67;;;0.20;1.00;;;;;;5028756;28;20214;-36
2024/01/12 03:58:49;;;;;;;18.87;17.03;;;0.20;1.00;;;;;;5035810;28;20228;-36
2024/01/12 04:01:14;;;;;;;18.67;16.70;;;0.30;1.00;;;;;;5033474;28;20212;-37
2024/01/12 04:03:40;;;;;;;16.90;15.40;;;0.30;1.00;;;;;;5030649;28;20179;-37
2024/01/12 04:06:09;;;;;;;18.15;16.10;;;0.30;1.00;;;;;;5031560;28;20180;-37
2024/01/12 04:08:35;;;;;;;18.25;16.38;;;0.30;1.00;;;;;;5033956;28;20611;-36
2024/01/12 04:11:01;;;;;;;18.73;16.80;;;0.30;1.00;;;;;;5037543;28;20193;-37
2024/01/12 04:13:26;;;;;;;19.10;16.90;;;0.40;1.00;;;;;;5025668;28;20811;-38
2024/01/12 04:15:53;;;;;;;18.17;16.37;;;0.30;1.00;;;;;;5036681;28;20297;-36
2024/01/12 04:18:18;;;;;;;17.83;16.05;;;0.40;1.00;;;;;;5036371;28;20263;-37
2024/01/12 04:20:44;;;;;;;18.17;16.47;;;0.40;1.00;;;;;;5035757;28;20602;-36
2024/01/12 04:23:10;;;;;;;17.73;16.03;;;0.40;1.00;;;;;;5034733;28;20221;-36
2024/01/12 04:25:35;;;;;;;17.83;16.23;;;0.40;1.00;;;;;;5040170;28;20184;-36
2024/01/12 04:28:01;;;;;;;16.83;15.23;;;0.40;1.00;;;;;;5033325;28;20644;-36
2024/01/12 04:30:26;;;;;;;17.63;15.90;;;0.40;1.00;;;;;;5008766;28;20282;-38
2024/01/12 04:32:53;;;;;;;17.27;15.60;;;0.50;1.00;;;;;;5039137;28;20192;-36
2024/01/12 04:35:18;;;;;;;17.10;15.50;;;0.50;1.00;;;;;;5033940;28;20203;-36
2024/01/12 04:37:44;;;;;;;19.87;17.50;;;0.50;1.00;;;;;;5030791;28;20199;-37
2024/01/12 04:40:10;;;;;;;19.33;17.33;;;0.50;1.00;;;;;;5037431;28;20208;-37
2024/01/12 04:42:36;;;;;;;17.33;15.63;;;0.50;1.00;;;;;;5037966;28;20242;-37
2024/01/12 04:45:02;;;;;;;18.37;16.60;;;0.50;1.00;;;;;;5033215;28;20188;-36
2024/01/12 04:47:27;;;;;;;17.90;16.20;;;0.50;1.00;;;;;;5011999;28;20191;-37
2024/01/12 04:49:53;;;;;;;18.43;16.37;;;0.50;1.00;;;;;;5034383;28;20183;-58
2024/01/12 04:52:18;;;;;;;16.47;14.87;;;0.50;1.00;;;;;;5033961;28;20607;-55
2024/01/12 04:54:44;;;;;;;21.10;18.00;;;0.60;1.00;;;;;;5029426;28;20192;-56
2024/01/12 04:57:09;;;;;;;18.60;16.83;;;0.50;1.00;;;;;;5036524;28;20826;-58
2024/01/12 04:59:35;;;;;;;18.27;16.57;;;0.50;1.00;;;;;;5031495;28;20210;-57
2024/01/12 05:02:01;;;;;;;16.47;14.93;;;0.50;1.00;;;;;;5031140;28;20517;-58
2024/01/12 05:04:26;;;;;;;17.77;16.07;;;0.50;1.00;;;;;;5029748;28;20206;-56
2024/01/12 05:06:52;;;;;;;17.70;16.10;;;0.40;1.00;;;;;;5010923;28;20188;-57
2024/01/12 05:09:17;;;;;;;16.50;14.80;;;0.40;1.00;;;;;;5031367;28;20268;-56
2024/01/12 05:11:43;;;;;;;17.50;15.90;;;0.40;1.00;;;;;;5038955;28;20190;-57
2024/01/12 05:14:08;;;;;;;16.70;15.20;;;0.40;1.00;;;;;;5038847;28;20485;-57
2024/01/12 05:16:34;;;;;;;17.50;15.90;;;0.40;1.00;;;;;;5032537;28;20266;-55
2024/01/12 05:19:00;;;;;;;16.70;15.10;;;0.40;1.00;;;;;;5024726;28;20239;-55
2024/01/12 05:21:25;;;;;;;16.80;15.13;;;0.40;1.00;;;;;;5021412;28;20185;-55
2024/01/12 05:23:51;;;;;;;18.03;15.93;;;0.40;1.00;;;;;;5023805;28;20270;-57
2024/01/12 05:26:16;;;;;;;18.00;16.40;;;0.40;1.00;;;;;;5026803;28;20189;-56
2024/01/12 05:28:42;;;;;;;16.33;14.83;;;0.40;1.00;;;;;;5031951;28;20183;-36
2024/01/12 05:31:11;;;;;;;17.60;15.90;;;0.40;1.00;;;;;;5030583;28;20221;-36
2024/01/12 05:33:36;;;;;;;18.48;16.77;;;0.40;1.00;;;;;;5029358;28;20243;-37
2024/01/12 05:36:02;;;;;;;17.83;16.17;;;0.40;1.00;;;;;;5039177;28;20277;-37
2024/01/12 05:38:27;;;;;;;18.00;16.20;;;0.50;1.00;;;;;;5027460;28;20203;-37
2024/01/12 05:40:53;;;;;;;16.90;14.97;;;0.50;1.00;;;;;;5021296;28;20211;-37
2024/01/12 05:43:19;;;;;;;18.10;16.30;;;0.50;1.00;;;;;;5026521;28;20682;-37
2024/01/12 05:45:45;;;;;;;16.50;15.00;;;0.60;1.00;;;;;;5038914;28;20178;-37
2024/01/12 05:48:12;;;;;;;33.13;16.43;;;0.60;1.00;;;;;;5033478;28;20331;-37
2024/01/12 05:50:37;;;;;;;34.33;17.23;;;0.60;1.00;;;;;;5033385;28;20415;-36
2024/01/12 05:53:05;;;;;;;17.23;15.43;;;0.60;1.00;;;;;;5036604;28;20239;-37
2024/01/12 05:55:30;;;;;;;16.25;14.65;;;0.60;1.00;;;;;;5038078;28;20269;-37
2024/01/12 05:57:56;;;;;;;15.73;14.33;;;0.60;1.00;;;;;;5030076;28;20199;-36
2024/01/12 06:00:21;;;;;;;18.33;16.37;;;0.60;1.00;;;;;;5034435;28;20279;-38
2024/01/12 06:02:47;;;;;;;17.10;15.37;;;0.60;1.00;;;;;;5021721;28;20197;-37
2024/01/12 06:05:13;;;;;;;19.00;17.03;;;0.60;1.00;;;;;;5026319;28;20188;-36
2024/01/12 06:07:38;;;;;;;19.97;14.57;;;0.60;1.00;;;;;;5029881;28;20583;-36
2024/01/12 06:10:05;;;;;;;16.13;14.73;;;0.60;1.00;;;;;;5028566;28;20199;-36
2024/01/12 06:12:30;;;;;;;16.25;14.65;;;0.70;1.00;;;;;;5039274;28;20200;-36
2024/01/12 06:14:56;;;;;;;17.90;16.03;;;0.60;1.00;;;;;;5034107;28;20641;-36
2024/01/12 06:17:21;;;;;;;17.57;15.77;;;0.60;1.00;;;;;;5023573;28;20192;-37
2024/01/12 06:19:47;;;;;;;17.53;15.73;;;0.60;1.00;;;;;;5035034;28;20276;-36
2024/01/12 06:22:13;;;;;;;18.03;16.10;;;0.60;1.00;;;;;;5026801;28;20190;-36
2024/01/12 06:24:38;;;;;;;20.00;16.90;;;0.60;1.00;;;;;;5036994;28;20435;-36
2024/01/12 06:27:04;;;;;;;16.40;14.57;;;0.60;1.00;;;;;;5032570;28;20241;-36
2024/01/12 06:29:30;;;;;;;16.90;15.40;;;0.60;1.00;;;;;;5032837;28;20642;-37
2024/01/12 06:31:55;;;;;;;16.27;14.57;;;0.60;1.00;;;;;;5041002;28;20412;-37
2024/01/12 06:34:21;;;;;;;16.10;14.43;;;0.50;1.00;;;;;;5037086;28;20232;-37
2024/01/12 06:36:46;;;;;;;16.80;15.20;;;0.60;1.00;;;;;;5034088;28;20678;-37
2024/01/12 06:39:12;;;;;;;20.73;17.27;;;0.60;1.00;;;;;;5017712;28;20551;-38
2024/01/12 06:41:46;;;;;;;20.50;15.53;;;0.60;1.00;;;;;;5035052;28;20192;-36
2024/01/12 06:44:12;;;;;;;18.70;16.30;;;0.60;1.00;;;;;;5035751;28;20704;-36
2024/01/12 06:46:45;;;;;;;17.25;15.55;;;0.60;1.00;;;;;;5038543;28;20186;-37
2024/01/12 06:49:10;;;;;;;16.45;14.88;;;0.60;1.00;;;;;;5036537;28;20475;-36
2024/01/12 06:51:36;;;;;;;14.77;13.57;;;0.60;1.00;;;;;;5034803;28;20348;-36
2024/01/12 06:54:02;;;;;;;15.80;14.20;;;0.60;1.00;;;;;;5031894;28;20184;-36
2024/01/12 06:56:28;;;;;;;15.23;13.73;;;0.70;1.00;;;;;;5034771;28;20185;-36
2024/01/12 06:58:53;;;;;;;15.13;13.73;;;0.70;1.00;;;;;;5032033;28;20187;-37
2024/01/12 07:01:19;;;;;;;15.50;14.00;;;0.70;1.00;;;;;;5035716;28;20270;-36
2024/01/12 07:03:45;;;;;;;15.30;14.00;;;0.70;1.00;;;;;;5024667;28;20197;-36
2024/01/12 07:06:11;;;;;;;14.20;13.00;;;0.80;99.90;;;;;;5038491;28;20187;-36
2024/01/12 07:08:37;;;;;;;15.23;13.93;;;0.80;99.90;;;;;;5033424;28;20420;-36
2024/01/12 07:11:03;;;;;;;14.50;13.13;;;0.80;99.90;;;;;;5028126;28;21221;-38
2024/01/12 07:13:29;;;;;;;15.35;14.05;;;0.80;80.80;;;;;;5040037;28;20187;-36
2024/01/12 07:15:54;;;;;;;15.10;13.90;;;0.80;1.00;;;;;;5029331;28;20209;-36
2024/01/12 07:18:20;;;;;;;14.60;13.40;;;0.80;1.00;;;;;;5039776;28;20250;-36
2024/01/12 07:20:46;;;;;;;15.03;13.53;;;0.80;1.00;;;;;;5022886;28;20242;-36
2024/01/12 07:23:11;;;;;;;15.43;14.07;;;0.80;99.90;;;;;;5029083;28;20186;-36
2024/01/12 07:25:38;;;;;;;13.00;12.10;;;0.80;1.00;;;;;;5033170;28;20180;-38
2024/01/12 07:28:05;;;;;;;14.27;13.05;;;0.80;99.90;;;;;;5040577;28;20184;-35
2024/01/12 07:30:31;;;;;;;14.68;13.38;;;0.80;99.90;;;;;;5027671;28;20335;-56
2024/01/12 07:32:57;;;;;;;15.20;13.90;;;0.80;99.90;;;;;;5031801;28;20646;-52
2024/01/12 07:35:22;;;;;;;15.47;14.17;;;0.80;99.90;;;;;;5036418;28;20857;-57
2024/01/12 07:37:48;;;;;;;14.40;13.30;;;0.80;1.00;;;;;;5040718;28;20195;-57
2024/01/12 07:40:14;;;;;;;14.40;13.30;;;0.80;99.90;;;;;;5037895;28;20223;-49
2024/01/12 07:42:39;;;;;;;15.00;13.80;;;0.80;99.90;;;;;;5022557;28;20581;-56
2024/01/12 07:45:05;;;;;;;14.27;13.13;;;0.80;1.00;;;;;;5039801;28;20771;-37
2024/01/12 07:47:31;;;;;;;13.93;12.80;;;0.90;1.00;;;;;;5040187;28;20318;-37
2024/01/12 07:49:57;;;;;;;15.07;13.77;;;0.90;1.00;;;;;;5019860;28;20866;-36
2024/01/12 07:52:22;;;;;;;15.73;13.93;;;0.90;1.00;;;;;;5031028;28;20499;-36
2024/01/12 07:54:48;;;;;;;13.37;12.40;;;1.00;99.90;;;;;;5039897;28;20192;-36
2024/01/12 07:57:13;;;;;;;15.00;12.77;;;0.90;1.00;;;;;;5031260;28;20574;-37
2024/01/12 07:59:39;;;;;;;14.33;13.13;;;1.00;1.00;;;;;;5039935;28;20211;-36
2024/01/12 08:02:05;;;;;;;14.10;12.90;;;1.00;99.90;;;;;;5031638;28;20197;-37
2024/01/12 08:04:31;;;;;;;15.15;13.85;;;1.00;99.90;;;;;;5031347;28;20182;-36
2024/01/12 08:06:56;;;;;;;13.77;12.70;;;1.00;1.00;;;;;;5028942;28;20296;-37
2024/01/12 08:09:22;;;;;;;14.17;12.87;;;1.00;1.00;;;;;;5031416;28;20192;-36
2024/01/12 08:11:47;;;;;;;14.33;13.00;;;1.00;99.90;;;;;;5024222;28;20200;-37
2024/01/12 08:14:13;;;;;;;14.40;13.20;;;1.00;19.70;;;;;;5024544;28;20889;-37
2024/01/12 08:16:38;;;;;;;13.60;12.37;;;1.00;99.90;;;;;;5027473;28;20541;-38
2024/01/12 08:19:04;;;;;;;16.43;15.03;;;1.10;99.90;;;;;;5030659;28;20256;-57
2024/01/12 08:21:30;;;;;;;13.83;12.53;;;1.00;41.40;;;;;;5021228;28;20198;-58
2024/01/12 08:23:55;;;;;;;15.43;13.87;;;1.00;18.30;;;;;;5034735;28;20258;-48
2024/01/12 08:26:21;;;;;;;14.17;13.07;;;1.10;99.90;;;;;;5037629;28;20492;-55
2024/01/12 08:28:51;;;;;;;12.80;11.80;;;1.10;99.90;;;;;;5031704;28;20215;-57
2024/01/12 08:31:17;;;;;;;14.32;13.23;;;1.10;99.90;;;;;;5022845;28;20265;-56
2024/01/12 08:33:44;;;;;;;15.30;13.90;;;1.10;99.90;;;;;;5036147;28;20270;-56
2024/01/12 08:36:10;;;;;;;14.57;13.27;;;1.10;99.90;;;;;;5032885;28;20417;-36
2024/01/12 08:38:35;;;;;;;13.57;12.37;;;1.10;1.00;;;;;;5038857;28;20606;-37
2024/01/12 08:41:01;;;;;;;13.60;12.50;;;1.00;99.90;;;;;;5034603;28;20200;-37
2024/01/12 08:43:27;;;;;;;15.27;13.97;;;1.00;99.90;;;;;;5032775;28;20190;-36
2024/01/12 08:45:52;;;;;;;13.70;12.60;;;1.00;1.00;;;;;;5027416;28;20659;-37
2024/01/12 08:48:19;;;;;;;13.50;12.27;;;1.00;1.00;;;;;;5036903;28;20183;-36
2024/01/12 08:50:44;;;;;;;14.32;13.00;;;1.00;99.90;;;;;;5029746;28;20206;-37
2024/01/12 08:53:10;;;;;;;15.00;13.77;;;1.00;99.90;;;;;;5036960;28;20184;-36
2024/01/12 08:55:36;;;;;;;14.90;13.67;;;1.00;78.70;;;;;;5039558;28;20661;-37
2024/01/12 08:58:01;;;;;;;15.00;13.60;;;1.10;8.40;;;;;;5037368;28;20268;-37
2024/01/12 09:00:27;;;;;;;15.53;14.17;;;1.20;1.00;;;;;;5039187;28;20207;-36
2024/01/12 09:02:52;;;;;;;15.00;13.50;;;1.20;1.00;;;;;;5026903;28;20178;-37
2024/01/12 09:05:18;;;;;;;16.00;14.60;;;1.30;99.90;;;;;;5030240;28;20452;-38
2024/01/12 09:07:44;;;;;;;15.87;14.43;;;1.30;1.00;;;;;;5026918;28;20598;-37
2024/01/12 09:10:09;;;;;;;14.90;13.70;;;1.30;1.00;;;;;;5030030;28;20475;-37
2024/01/12 09:12:35;;;;;;;13.43;12.53;;;1.30;99.90;;;;;;5037528;28;20214;-36
2024/01/12 09:15:01;;;;;;;14.87;13.60;;;1.30;1.00;;;;;;5037627;28;20188;-36
2024/01/12 09:17:26;;;;;;;14.10;12.70;;;1.20;99.90;;;;;;5028593;28;20262;-37
2024/01/12 09:19:52;;;;;;;14.40;13.10;;;1.30;1.00;;;;;;5029617;28;20394;-36
2024/01/12 09:22:17;;;;;;;14.63;13.33;;;1.20;1.00;;;;;;5029220;28;20419;-38
2024/01/12 09:24:43;;;;;;;14.47;13.23;;;1.20;99.90;;;;;;5033759;28;20714;-37
2024/01/12 09:27:08;;;;;;;13.60;12.50;;;1.10;1.00;;;;;;5030264;28;20635;-37
2024/01/12 09:29:35;;;;;;;14.80;13.30;;;1.20;45.00;;;;;;5029633;28;20200;-37
2024/01/12 09:32:00;;;;;;;14.82;13.70;;;1.30;1.00;;;;;;5005821;28;20192;-37
2024/01/12 09:34:26;;;;;;;14.53;13.30;;;1.30;1.00;;;;;;5038813;28;20214;-52
2024/01/12 09:36:51;;;;;;;15.87;14.40;;;1.30;99.90;;;;;;5037621;28;20207;-56
2024/01/12 09:39:17;;;;;;;14.17;12.90;;;1.30;99.90;;;;;;5038745;28;20201;-50
2024/01/12 09:41:49;;;;;;;14.00;12.90;;;1.40;99.90;;;;;;5038519;28;20179;-52
2024/01/12 09:44:21;;;;;;;14.13;12.93;;;1.40;99.90;;;;;;5033959;28;20420;-57
2024/01/12 09:46:57;;;;;;;13.60;12.40;;;1.40;99.90;;;;;;5033526;28;20227;-47
2024/01/12 09:49:29;;;;;;;13.15;12.15;;;1.50;99.90;;;;;;5035128;28;20266;-36
2024/01/12 09:51:56;;;;;;;13.23;12.25;;;1.50;97.80;;;;;;5039896;28;20259;-37
2024/01/12 09:54:22;;;;;;;13.30;12.30;;;1.50;9.10;;;;;;5033416;28;20209;-37
2024/01/12 09:56:48;;;;;;;13.20;12.20;;;1.40;1.00;;;;;;5041029;28;20192;-36
2024/01/12 09:59:16;;;;;;;13.37;12.37;;;1.40;99.90;;;;;;5029618;28;20610;-36
2024/01/12 10:01:42;;;;;;;12.98;12.07;;;1.40;1.00;;;;;;5036796;28;20186;-36
2024/01/12 10:04:08;;;;;;;13.23;12.25;;;1.50;1.00;;;;;;5035263;28;20204;-38
2024/01/12 10:06:35;;;;;;;12.80;11.82;;;1.50;1.00;;;;;;5040901;28;20722;-39
2024/01/12 10:09:01;;;;;;;13.88;12.70;;;1.50;1.00;;;;;;5022777;28;20259;-39
2024/01/12 10:11:27;;;;;;;12.70;11.80;;;1.50;99.90;;;;;;5042401;28;20177;-36
2024/01/12 10:13:52;;;;;;;13.73;12.70;;;1.50;1.00;;;;;;5008373;28;20755;-37
2024/01/12 10:16:18;;;;;;;12.43;11.57;;;1.50;1.00;;;;;;5029379;28;20519;-36
2024/01/12 10:18:44;;;;;;;13.95;12.85;;;1.50;1.00;;;;;;5033441;28;20308;-37
2024/01/12 10:21:10;;;;;;;12.33;11.47;;;1.40;1.00;;;;;;5031393;28;20234;-36
2024/01/12 10:23:36;;;;;;;12.57;11.67;;;1.30;99.90;;;;;;5012434;28;21020;-37
2024/01/12 10:26:04;;;;;;;12.57;11.50;;;1.40;1.00;;;;;;5029060;28;20193;-38
2024/01/12 10:28:30;;;;;;;13.00;11.98;;;1.40;1.00;;;;;;5029745;28;20639;-37
2024/01/12 10:30:56;;;;;;;13.77;12.77;;;1.50;1.00;;;;;;5030309;28;20189;-37
2024/01/12 10:33:23;;;;;;;13.63;12.63;;;1.50;76.80;;;;;;5032782;28;20195;-36
2024/01/12 10:36:05;;;;;;;14.38;13.00;;;1.50;1.00;;;;;;5042098;28;20184;-36
2024/01/12 10:38:31;;;;;;;12.88;11.68;;;1.40;1.00;;;;;;5014658;28;20684;-37
2024/01/12 10:41:00;;;;;;;13.90;12.63;;;1.40;1.00;;;;;;5041485;28;20213;-41
2024/01/12 10:43:27;;;;;;;13.48;12.55;;;1.40;1.00;;;;;;5035771;28;20645;-37
2024/01/12 10:45:58;;;;;;;14.50;13.38;;;1.40;1.00;;;;;;5041479;28;20186;-37
2024/01/12 10:48:27;;;;;;;14.02;12.88;;;1.40;99.90;;;;;;5039238;28;20183;-37
2024/01/12 10:50:57;;;;;;;14.18;12.77;;;1.30;99.90;;;;;;5041715;28;20205;-37
2024/01/12 10:53:37;;;;;;;14.52;13.27;;;1.40;1.00;;;;;;5036039;28;20181;-37
2024/01/12 10:56:03;;;;;;;14.45;13.25;;;1.40;1.00;;;;;;5036180;28;20177;-37
2024/01/12 10:58:29;;;;;;;14.93;13.82;;;1.40;1.00;;;;;;5031043;28;20189;-36
2024/01/12 11:00:55;;;;;;;14.00;12.90;;;1.50;99.90;;;;;;5036693;28;20215;-37
2024/01/12 11:03:22;;;;;;;13.07;11.97;;;1.50;1.00;;;;;;5033621;28;20239;-36
2024/01/12 11:05:48;;;;;;;15.15;13.95;;;1.50;1.00;;;;;;5023472;28;20432;-37
2024/01/12 11:08:15;;;;;;;14.20;13.00;;;1.50;1.00;;;;;;5027571;28;20235;-36
2024/01/12 11:11:02;;;;;;;15.48;14.05;;;1.50;99.90;;;;;;5026486;28;20215;-37
2024/01/12 11:13:28;;;;;;;15.63;14.23;;;1.40;99.90;;;;;;5028092;28;20188;-37
2024/01/12 11:15:55;;;;;;;15.15;13.85;;;1.50;1.00;;;;;;5039182;28;20395;-36
2024/01/12 11:18:21;;;;;;;16.15;14.68;;;1.50;1.00;;;;;;5038136;28;20633;-36
2024/01/12 11:20:47;;;;;;;16.83;14.63;;;1.40;1.00;;;;;;5039458;28;20679;-36
2024/01/12 11:23:12;;;;;;;15.70;14.13;;;1.40;1.00;;;;;;5031286;28;20187;-36
2024/01/12 11:25:38;;;;;;;16.50;14.83;;;1.40;1.00;;;;;;5039189;28;20180;-36
2024/01/12 11:28:07;;;;;;;16.57;15.27;;;1.40;1.00;;;;;;5040968;28;20245;-36
2024/01/12 11:30:41;;;;;;;17.17;15.38;;;1.40;1.00;;;;;;5024313;28;20386;-36
2024/01/12 11:33:08;;;;;;;16.98;15.20;;;1.30;99.90;;;;;;5031121;28;20264;-36
2024/01/12 11:35:37;;;;;;;16.63;15.02;;;1.20;1.00;;;;;;5030675;28;20184;-36
2024/01/12 11:38:07;;;;;;;16.17;14.68;;;1.20;50.00;;;;;;5036879;28;20236;-37
2024/01/12 11:40:34;;;;;;;16.10;14.55;;;1.20;99.90;;;;;;5027556;28;20285;-37
2024/01/12 11:43:00;;;;;;;15.13;13.77;;;1.20;99.90;;;;;;5034452;28;20183;-37
2024/01/12 11:45:29;;;;;;;15.73;14.23;;;1.20;99.90;;;;;;5034299;28;20180;-38
2024/01/12 11:47:54;;;;;;;13.93;12.75;;;1.20;62.50;;;;;;5040721;28;20180;-37
2024/01/12 11:50:24;;;;;;;13.87;12.80;;;1.20;18.50;;;;;;5032704;28;20915;-37
2024/01/12 11:53:00;;;;;;;14.13;13.13;;;1.30;1.00;;;;;;5032153;28;20475;-37
2024/01/12 11:55:26;;;;;;;14.40;13.13;;;1.40;1.00;;;;;;5033467;28;20579;-36
2024/01/12 11:57:53;;;;;;;12.35;11.35;;;1.30;1.00;;;;;;5035456;28;20196;-38
2024/01/12 12:00:20;;;;;;;13.32;12.13;;;1.40;99.90;;;;;;5012133;28;20264;-36
2024/01/12 12:02:46;;;;;;;12.70;11.57;;;1.50;99.90;;;;;;5034101;28;20610;-54
2024/01/12 12:05:12;;;;;;;13.37;12.37;;;1.50;99.90;;;;;;5030730;28;20229;-57
2024/01/12 12:07:39;;;;;;;14.17;12.77;;;1.50;99.90;;;;;;5032893;28;20586;-56
2024/01/12 12:10:05;;;;;;;13.13;12.23;;;1.40;99.90;;;;;;5038436;28;20238;-56
2024/01/12 12:12:31;;;;;;;13.60;12.60;;;1.40;1.00;;;;;;5039313;28;20188;-48
2024/01/12 12:15:08;;;;;;;14.33;13.17;;;1.40;1.00;;;;;;5031568;28;20193;-37
2024/01/12 12:17:40;;;;;;;12.57;11.68;;;1.40;1.00;;;;;;5038207;28;20438;-41
2024/01/12 12:20:13;;;;;;;13.30;12.10;;;1.40;1.00;;;;;;5030790;28;20331;-38
2024/01/12 12:22:40;;;;;;;11.95;11.05;;;1.40;38.40;;;;;;5027060;28;20180;-38
2024/01/12 12:25:09;;;;;;;13.98;12.70;;;1.40;99.90;;;;;;5029823;28;20217;-37
2024/01/12 12:27:36;;;;;;;14.93;13.65;;;1.40;99.90;;;;;;5021096;28;20900;-38
2024/01/12 12:30:04;;;;;;;15.02;13.90;;;1.40;99.90;;;;;;5020899;28;20205;-37
2024/01/12 12:32:29;;;;;;;14.10;12.90;;;1.30;1.00;;;;;;5037748;28;20196;-36
2024/01/12 12:34:55;;;;;;;13.87;12.70;;;1.40;1.00;;;;;;5028296;28;20544;-37
2024/01/12 12:37:21;;;;;;;14.47;13.30;;;1.40;99.90;;;;;;5028456;28;20192;-36